Time;durP1;ratioP1;P1;durP2;ratioP2;P2;SDS_P1;SDS_P2;PMS_P1;PMS_P2;Temp;Humidity;BMP_temperature;BMP_pressure;BME280_temperature;BME280_humidity;BME280_pressure;Samples;Min_cycle;Max_cycle;Signal;HPM_P1;HPM_P2
2024/04/13 00:00:21;;;;;;;1.90;1.23;;;25.20;41.70;;;;;;5431921;26;20003;-64
2024/04/13 00:02:47;;;;;;;3.10;1.20;;;25.20;41.80;;;;;;5433664;26;20439;-62
2024/04/13 00:05:12;;;;;;;1.73;1.10;;;25.20;41.80;;;;;;5428965;26;19999;-62
2024/04/13 00:07:38;;;;;;;1.73;1.10;;;25.20;41.80;;;;;;5427194;26;20014;-62
2024/04/13 00:10:04;;;;;;;1.88;1.20;;;25.20;41.70;;;;;;5426950;26;20000;-62
2024/04/13 00:12:30;;;;;;;2.20;1.15;;;25.20;41.80;;;;;;5431779;26;20000;-60
2024/04/13 00:14:56;;;;;;;2.03;1.10;;;25.20;41.80;;;;;;5430834;26;20175;-62
2024/04/13 00:17:23;;;;;;;1.58;1.00;;;25.20;41.80;;;;;;5426062;26;20478;-62
2024/04/13 00:19:49;;;;;;;1.65;1.15;;;25.10;41.80;;;;;;5427117;26;20505;-61
2024/04/13 00:22:19;;;;;;;1.70;1.17;;;25.10;41.70;;;;;;5432416;26;20003;-62
2024/04/13 00:24:47;;;;;;;1.90;1.10;;;25.10;41.80;;;;;;5443457;26;20089;-62
2024/04/13 00:27:13;;;;;;;2.28;1.10;;;25.10;41.80;;;;;;5429796;26;20479;-62
2024/04/13 00:29:39;;;;;;;1.80;1.10;;;25.10;41.80;;;;;;5430592;26;20015;-62
2024/04/13 00:32:05;;;;;;;1.20;0.90;;;25.10;41.80;;;;;;5430053;26;20013;-62
2024/04/13 00:34:34;;;;;;;2.10;1.00;;;25.10;41.80;;;;;;5434142;26;20320;-62
2024/04/13 00:37:00;;;;;;;2.05;1.05;;;25.10;41.80;;;;;;5425782;26;20039;-63
2024/04/13 00:39:26;;;;;;;2.40;1.10;;;25.00;41.70;;;;;;5429703;26;20003;-62
2024/04/13 00:41:54;;;;;;;2.15;1.30;;;25.00;41.70;;;;;;5430556;26;20003;-62
2024/04/13 00:44:20;;;;;;;2.63;1.47;;;25.00;41.80;;;;;;5430673;26;20403;-62
2024/04/13 00:46:47;;;;;;;1.90;1.10;;;25.00;41.80;;;;;;5432449;26;20013;-62
2024/04/13 00:49:13;;;;;;;1.65;1.10;;;25.00;41.80;;;;;;5430713;26;20089;-62
2024/04/13 00:51:44;;;;;;;2.15;1.10;;;24.90;41.80;;;;;;5427134;26;20475;-62
2024/04/13 00:54:15;;;;;;;1.60;1.00;;;24.90;41.80;;;;;;5427772;26;20573;-62
2024/04/13 00:56:43;;;;;;;1.65;1.00;;;24.90;41.80;;;;;;5427666;26;20167;-62
2024/04/13 00:59:09;;;;;;;1.85;1.20;;;24.90;41.80;;;;;;5429674;26;20080;-62
2024/04/13 01:01:36;;;;;;;1.67;0.90;;;24.90;41.80;;;;;;5431548;26;20003;-62
2024/04/13 01:04:02;;;;;;;1.60;1.08;;;24.90;41.80;;;;;;5432041;26;20045;-62
2024/04/13 01:06:29;;;;;;;1.60;1.10;;;24.80;41.80;;;;;;5427594;26;20076;-62
2024/04/13 01:08:56;;;;;;;1.58;1.00;;;24.80;41.80;;;;;;5428442;26;20013;-62
2024/04/13 01:11:22;;;;;;;1.67;1.00;;;24.80;41.80;;;;;;5429506;26;19996;-62
2024/04/13 01:13:48;;;;;;;1.67;1.05;;;24.80;41.80;;;;;;5429537;26;20410;-62
2024/04/13 01:16:14;;;;;;;1.45;0.90;;;24.80;41.90;;;;;;5432036;26;20010;-62
2024/04/13 01:18:41;;;;;;;1.70;1.00;;;24.80;41.90;;;;;;5427548;26;20007;-63
2024/04/13 01:21:07;;;;;;;1.50;1.00;;;24.80;41.90;;;;;;5430470;26;20011;-62
2024/04/13 01:23:38;;;;;;;1.35;0.90;;;24.80;41.90;;;;;;5432042;26;20443;-62
2024/04/13 01:26:07;;;;;;;1.27;1.00;;;24.80;41.90;;;;;;5430728;26;20011;-62
2024/04/13 01:28:34;;;;;;;1.73;0.90;;;24.70;41.90;;;;;;5429616;26;20318;-62
2024/04/13 01:31:01;;;;;;;0.98;0.80;;;24.70;41.90;;;;;;5431875;26;20257;-62
2024/04/13 01:33:26;;;;;;;1.35;0.90;;;24.70;41.90;;;;;;5425332;26;19996;-62
2024/04/13 01:35:57;;;;;;;1.65;1.00;;;24.70;41.90;;;;;;5430130;26;20017;-62
2024/04/13 01:38:23;;;;;;;1.27;0.93;;;24.70;41.90;;;;;;5432324;26;19999;-62
2024/04/13 01:40:48;;;;;;;1.00;0.80;;;24.70;42.00;;;;;;5429083;26;20625;-62
2024/04/13 01:43:14;;;;;;;1.48;0.93;;;24.60;41.90;;;;;;5429240;26;19996;-62
2024/04/13 01:45:40;;;;;;;1.10;0.80;;;24.70;42.00;;;;;;5429363;26;20154;-62
2024/04/13 01:48:06;;;;;;;1.25;0.90;;;24.60;42.00;;;;;;5432237;26;20408;-62
2024/04/13 01:50:32;;;;;;;0.80;0.80;;;24.60;42.00;;;;;;5430329;26;20047;-62
2024/04/13 01:52:58;;;;;;;2.08;1.00;;;24.60;42.00;;;;;;5429248;26;19995;-62
2024/04/13 01:55:23;;;;;;;1.13;0.90;;;24.60;42.00;;;;;;5428241;26;20118;-62
2024/04/13 01:57:49;;;;;;;1.02;0.85;;;24.50;42.00;;;;;;5429455;26;20082;-62
2024/04/13 02:00:15;;;;;;;1.15;0.90;;;24.50;42.00;;;;;;5428775;26;20076;-61
2024/04/13 02:02:42;;;;;;;1.23;0.80;;;24.50;42.00;;;;;;5428804;26;19999;-62
2024/04/13 02:05:08;;;;;;;1.20;0.90;;;24.50;42.00;;;;;;5428797;26;20003;-62
2024/04/13 02:07:33;;;;;;;1.42;0.95;;;24.50;42.10;;;;;;5433470;26;20002;-62
2024/04/13 02:09:59;;;;;;;1.02;0.80;;;24.50;42.10;;;;;;5426988;26;20003;-62
2024/04/13 02:12:26;;;;;;;1.08;0.88;;;24.50;42.10;;;;;;5427597;26;20000;-63
2024/04/13 02:14:51;;;;;;;1.08;0.80;;;24.50;42.10;;;;;;5429551;26;19999;-62
2024/04/13 02:17:17;;;;;;;0.70;0.70;;;24.40;42.10;;;;;;5426130;26;20348;-62
2024/04/13 02:19:43;;;;;;;1.17;0.90;;;24.40;42.10;;;;;;5433912;26;20003;-62
2024/04/13 02:22:10;;;;;;;0.70;0.70;;;24.40;42.20;;;;;;5429211;26;20080;-62
2024/04/13 02:24:38;;;;;;;1.10;0.80;;;24.40;42.20;;;;;;5427529;26;20344;-62
2024/04/13 02:27:03;;;;;;;0.88;0.70;;;24.40;42.20;;;;;;5430242;26;20013;-62
2024/04/13 02:29:29;;;;;;;0.90;0.70;;;24.40;42.20;;;;;;5429299;26;20435;-62
2024/04/13 02:31:55;;;;;;;0.82;0.70;;;24.40;42.20;;;;;;5427839;26;20061;-62
2024/04/13 02:34:20;;;;;;;0.60;0.60;;;24.30;42.20;;;;;;5432235;26;20007;-62
2024/04/13 02:36:46;;;;;;;1.20;0.88;;;24.30;42.20;;;;;;5433185;26;20010;-62
2024/04/13 02:39:13;;;;;;;0.85;0.80;;;24.30;42.20;;;;;;5427226;26;20945;-62
2024/04/13 02:41:38;;;;;;;0.90;0.80;;;24.30;42.20;;;;;;5425725;26;20003;-62
2024/04/13 02:44:04;;;;;;;0.98;0.77;;;24.30;42.20;;;;;;5431008;26;19999;-62
2024/04/13 02:46:30;;;;;;;0.90;0.80;;;24.30;42.80;;;;;;5425617;26;20018;-61
2024/04/13 02:48:55;;;;;;;1.35;0.90;;;24.30;42.30;;;;;;5425486;26;20793;-62
2024/04/13 02:51:21;;;;;;;0.70;0.70;;;24.30;42.30;;;;;;5428837;26;20015;-62
2024/04/13 02:53:47;;;;;;;1.00;0.80;;;24.30;42.30;;;;;;5427950;26;20034;-62
2024/04/13 02:56:13;;;;;;;1.35;0.90;;;24.20;42.30;;;;;;5427353;26;20404;-62
2024/04/13 02:58:38;;;;;;;0.85;0.70;;;24.30;42.30;;;;;;5430654;26;20589;-62
2024/04/13 03:01:05;;;;;;;0.80;0.70;;;24.20;42.30;;;;;;5428447;26;20021;-62
2024/04/13 03:03:31;;;;;;;1.13;0.82;;;24.20;42.30;;;;;;5427973;26;20010;-62
2024/04/13 03:06:08;;;;;;;1.13;0.80;;;24.20;42.30;;;;;;5428310;26;20432;-62
2024/04/13 03:08:35;;;;;;;1.15;0.80;;;24.20;42.30;;;;;;5426168;26;20040;-62
2024/04/13 03:11:01;;;;;;;0.82;0.70;;;24.20;42.40;;;;;;5424206;26;19995;-62
2024/04/13 03:13:28;;;;;;;0.90;0.80;;;24.20;42.40;;;;;;5430896;26;20071;-62
2024/04/13 03:16:01;;;;;;;0.80;0.80;;;24.10;42.40;;;;;;5427617;26;19999;-61
2024/04/13 03:18:27;;;;;;;0.80;0.80;;;24.10;42.40;;;;;;5426813;26;21046;-63
2024/04/13 03:20:53;;;;;;;0.70;0.70;;;24.10;42.40;;;;;;5426683;26;20007;-63
2024/04/13 03:23:20;;;;;;;1.05;0.80;;;24.10;42.40;;;;;;5430567;26;20079;-62
2024/04/13 03:25:46;;;;;;;0.95;0.80;;;24.10;42.40;;;;;;5431087;26;20048;-62
2024/04/13 03:28:12;;;;;;;1.10;0.80;;;24.10;42.40;;;;;;5427753;26;19999;-62
2024/04/13 03:30:38;;;;;;;1.20;0.82;;;24.10;42.40;;;;;;5425162;26;19995;-62
2024/04/13 03:33:04;;;;;;;1.50;0.93;;;24.10;42.40;;;;;;5427540;26;20009;-62
2024/04/13 03:35:36;;;;;;;1.17;0.90;;;24.10;42.50;;;;;;5427052;26;20015;-62
2024/04/13 03:38:01;;;;;;;1.20;0.90;;;24.00;42.40;;;;;;5422843;26;20343;-62
2024/04/13 03:40:27;;;;;;;1.17;0.90;;;24.10;42.50;;;;;;5425324;26;19999;-62
2024/04/13 03:42:53;;;;;;;1.40;0.80;;;24.10;42.50;;;;;;5428854;26;19995;-60
2024/04/13 03:45:18;;;;;;;0.70;0.70;;;24.00;42.50;;;;;;5428362;26;20343;-60
2024/04/13 03:47:44;;;;;;;0.90;0.70;;;24.00;42.50;;;;;;5423665;26;20338;-61
2024/04/13 03:50:10;;;;;;;0.77;0.77;;;24.00;42.50;;;;;;5428221;26;20006;-60
2024/04/13 03:52:38;;;;;;;1.33;0.90;;;24.00;42.50;;;;;;5429310;26;20000;-61
2024/04/13 03:55:04;;;;;;;1.20;0.90;;;24.00;42.50;;;;;;5422750;26;20495;-63
2024/04/13 03:57:32;;;;;;;1.17;0.80;;;24.00;42.50;;;;;;5428138;26;20454;-62
2024/04/13 03:59:58;;;;;;;1.00;0.90;;;24.00;42.50;;;;;;5424625;26;20026;-62
2024/04/13 04:02:23;;;;;;;1.25;0.80;;;24.00;42.60;;;;;;5429643;26;20562;-61
2024/04/13 04:04:49;;;;;;;0.70;0.70;;;24.00;42.50;;;;;;5429187;26;20073;-62
2024/04/13 04:07:15;;;;;;;0.90;0.80;;;24.00;42.50;;;;;;5424916;26;20300;-62
2024/04/13 04:09:40;;;;;;;1.27;0.80;;;23.90;42.50;;;;;;5423573;26;20035;-62
2024/04/13 04:12:06;;;;;;;0.82;0.70;;;23.90;42.50;;;;;;5422575;26;20096;-62
2024/04/13 04:14:32;;;;;;;1.20;0.80;;;23.90;42.50;;;;;;5429640;26;19995;-62
2024/04/13 04:16:57;;;;;;;0.90;0.70;;;23.90;42.50;;;;;;5429624;26;20040;-61
2024/04/13 04:19:23;;;;;;;0.82;0.80;;;23.90;42.60;;;;;;5427198;26;20454;-63
2024/04/13 04:21:49;;;;;;;1.02;0.80;;;23.90;42.60;;;;;;5427130;26;20034;-63
2024/04/13 04:24:15;;;;;;;1.52;0.88;;;23.90;42.60;;;;;;5429153;26;20504;-62
2024/04/13 04:26:40;;;;;;;0.90;0.70;;;23.90;43.10;;;;;;5425526;26;20085;-62
2024/04/13 04:29:06;;;;;;;2.05;1.00;;;23.90;42.60;;;;;;5427850;26;20011;-61
2024/04/13 04:31:32;;;;;;;0.95;0.80;;;23.80;42.60;;;;;;5433012;26;20006;-62
2024/04/13 04:33:57;;;;;;;1.38;0.70;;;23.90;42.60;;;;;;5425017;26;20000;-61
2024/04/13 04:36:23;;;;;;;1.15;0.90;;;23.80;42.60;;;;;;5430884;26;20038;-62
2024/04/13 04:38:51;;;;;;;0.90;0.70;;;23.90;42.70;;;;;;5424729;26;20000;-62
2024/04/13 04:41:17;;;;;;;1.00;0.80;;;23.80;42.60;;;;;;5426287;26;20010;-62
2024/04/13 04:43:43;;;;;;;1.00;0.70;;;23.80;42.60;;;;;;5430842;26;20168;-62
2024/04/13 04:46:09;;;;;;;0.90;0.70;;;23.80;42.60;;;;;;5435449;26;19999;-61
2024/04/13 04:48:35;;;;;;;0.85;0.77;;;23.80;42.60;;;;;;5429658;26;20003;-62
2024/04/13 04:51:02;;;;;;;1.20;0.90;;;23.80;42.70;;;;;;5429190;26;19999;-62
2024/04/13 04:53:28;;;;;;;0.80;0.80;;;23.80;42.70;;;;;;5431902;26;20391;-62
2024/04/13 04:55:55;;;;;;;0.80;0.70;;;23.80;42.70;;;;;;5428843;26;20450;-62
2024/04/13 04:58:21;;;;;;;1.20;0.90;;;23.80;42.70;;;;;;5431977;26;20759;-62
2024/04/13 05:00:48;;;;;;;0.77;0.77;;;23.70;42.60;;;;;;5431021;26;20457;-61
2024/04/13 05:03:14;;;;;;;0.80;0.77;;;23.70;42.70;;;;;;5429597;26;19995;-62
2024/04/13 05:05:41;;;;;;;0.90;0.80;;;23.70;42.70;;;;;;5432978;26;20035;-61
2024/04/13 05:08:07;;;;;;;1.27;0.88;;;23.70;42.70;;;;;;5431723;26;19995;-63
2024/04/13 05:10:32;;;;;;;0.82;0.80;;;23.70;42.70;;;;;;5425640;26;20002;-62
2024/04/13 05:12:58;;;;;;;2.00;0.70;;;23.70;42.70;;;;;;5434136;26;20030;-63
2024/04/13 05:15:24;;;;;;;0.90;0.80;;;23.70;42.70;;;;;;5432940;26;20013;-62
2024/04/13 05:17:50;;;;;;;0.88;0.68;;;23.70;43.30;;;;;;5432139;26;19994;-63
2024/04/13 05:20:16;;;;;;;0.98;0.77;;;23.70;42.70;;;;;;5430167;26;19995;-62
2024/04/13 05:22:42;;;;;;;0.70;0.70;;;23.70;43.30;;;;;;5429178;26;20070;-62
2024/04/13 05:25:07;;;;;;;0.93;0.70;;;23.70;42.80;;;;;;5427871;26;20451;-62
2024/04/13 05:27:33;;;;;;;1.20;0.70;;;23.70;42.80;;;;;;5426319;26;20006;-61
2024/04/13 05:30:02;;;;;;;0.90;0.73;;;23.60;42.80;;;;;;5427849;26;20054;-62
2024/04/13 05:32:29;;;;;;;1.00;0.70;;;23.60;42.80;;;;;;5424590;26;19999;-62
2024/04/13 05:34:54;;;;;;;0.93;0.68;;;23.60;42.80;;;;;;5429683;26;19998;-62
2024/04/13 05:37:20;;;;;;;1.05;0.80;;;23.60;42.80;;;;;;5430012;26;20500;-62
2024/04/13 05:39:46;;;;;;;1.00;0.77;;;23.70;43.40;;;;;;5428000;26;20004;-62
2024/04/13 05:42:11;;;;;;;1.00;0.80;;;23.60;42.80;;;;;;5430437;26;20104;-62
2024/04/13 05:44:37;;;;;;;1.08;0.90;;;23.60;42.80;;;;;;5429364;26;20335;-62
2024/04/13 05:47:03;;;;;;;1.00;0.80;;;23.60;42.80;;;;;;5427158;26;20010;-62
2024/04/13 05:49:28;;;;;;;0.82;0.70;;;23.60;42.80;;;;;;5429298;26;20028;-62
2024/04/13 05:51:54;;;;;;;1.45;0.90;;;23.60;42.80;;;;;;5430652;26;20399;-62
2024/04/13 05:54:21;;;;;;;1.50;0.80;;;23.60;42.80;;;;;;5429263;26;20015;-62
2024/04/13 05:56:46;;;;;;;0.65;0.65;;;23.50;42.80;;;;;;5425464;26;20543;-62
2024/04/13 05:59:12;;;;;;;1.67;0.90;;;23.60;42.80;;;;;;5430162;26;20051;-62
2024/04/13 06:01:38;;;;;;;0.93;0.73;;;23.50;42.80;;;;;;5429303;26;20003;-62
2024/04/13 06:04:04;;;;;;;1.92;0.70;;;23.60;42.90;;;;;;5430486;26;21060;-62
2024/04/13 06:06:30;;;;;;;0.98;0.80;;;23.50;42.80;;;;;;5426077;26;20000;-62
2024/04/13 06:08:55;;;;;;;0.93;0.80;;;23.50;42.80;;;;;;5432522;26;19995;-62
2024/04/13 06:11:21;;;;;;;0.73;0.73;;;23.50;43.40;;;;;;5425859;26;20003;-62
2024/04/13 06:13:46;;;;;;;1.30;0.90;;;23.50;42.90;;;;;;5431169;26;20451;-60
2024/04/13 06:16:12;;;;;;;1.08;0.80;;;23.50;42.80;;;;;;5428168;26;19999;-60
2024/04/13 06:18:38;;;;;;;1.27;0.90;;;23.50;42.90;;;;;;5428984;26;19995;-61
2024/04/13 06:21:04;;;;;;;1.20;0.90;;;23.50;42.90;;;;;;5429677;26;20311;-59
2024/04/13 06:23:29;;;;;;;2.38;0.85;;;23.50;42.90;;;;;;5428339;26;20447;-61
2024/04/13 06:25:56;;;;;;;0.90;0.80;;;23.50;42.90;;;;;;5431139;26;19996;-60
2024/04/13 06:28:23;;;;;;;1.00;0.85;;;23.50;42.90;;;;;;5429862;26;19995;-60
2024/04/13 06:30:49;;;;;;;0.90;0.80;;;23.50;42.90;;;;;;5431924;26;20010;-60
2024/04/13 06:33:16;;;;;;;0.90;0.77;;;23.50;42.90;;;;;;5423659;26;20010;-60
2024/04/13 06:35:42;;;;;;;1.15;0.80;;;23.40;42.90;;;;;;5428978;26;19994;-61
2024/04/13 06:38:08;;;;;;;1.15;0.70;;;23.40;42.80;;;;;;5429299;26;20079;-60
2024/04/13 06:40:35;;;;;;;1.02;0.77;;;23.40;42.80;;;;;;5428908;26;20467;-60
2024/04/13 06:43:02;;;;;;;0.75;0.65;;;23.40;42.90;;;;;;5427067;26;20301;-61
2024/04/13 06:45:27;;;;;;;1.42;0.75;;;23.40;42.90;;;;;;5429325;26;20035;-61
2024/04/13 06:47:53;;;;;;;0.88;0.70;;;23.40;42.90;;;;;;5429982;26;20018;-60
2024/04/13 06:50:18;;;;;;;1.40;0.90;;;23.40;42.90;;;;;;5432056;26;20529;-60
2024/04/13 06:52:44;;;;;;;1.10;0.80;;;23.40;42.90;;;;;;5429296;26;20081;-60
2024/04/13 06:55:10;;;;;;;1.13;0.80;;;23.40;43.00;;;;;;5428484;26;19998;-60
2024/04/13 06:57:36;;;;;;;0.95;0.75;;;23.40;42.90;;;;;;5423761;26;20004;-61
2024/04/13 07:00:02;;;;;;;0.65;0.60;;;23.40;42.90;;;;;;5424650;26;20453;-60
2024/04/13 07:02:28;;;;;;;0.80;0.73;;;23.40;43.00;;;;;;5428711;26;20023;-60
2024/04/13 07:04:54;;;;;;;1.20;0.80;;;23.40;43.00;;;;;;5426152;26;19996;-60
2024/04/13 07:07:19;;;;;;;1.48;0.80;;;23.40;43.00;;;;;;5428706;26;20034;-60
2024/04/13 07:09:45;;;;;;;0.70;0.70;;;23.40;43.00;;;;;;5429235;26;20034;-60
2024/04/13 07:12:11;;;;;;;1.48;0.70;;;23.40;43.00;;;;;;5422511;26;20460;-60
2024/04/13 07:14:36;;;;;;;1.00;0.80;;;23.40;43.00;;;;;;5428431;26;20072;-61
2024/04/13 07:17:02;;;;;;;0.65;0.65;;;23.40;43.00;;;;;;5431489;26;20478;-61
2024/04/13 07:19:28;;;;;;;1.00;0.80;;;23.40;43.10;;;;;;5423603;26;20079;-61
2024/04/13 07:21:54;;;;;;;1.33;0.90;;;23.40;43.10;;;;;;5427026;26;20006;-61
2024/04/13 07:24:20;;;;;;;1.05;0.80;;;23.40;43.10;;;;;;5430912;26;20038;-61
2024/04/13 07:26:45;;;;;;;1.50;0.95;;;23.40;43.10;;;;;;5425036;26;20057;-61
2024/04/13 07:29:11;;;;;;;1.17;0.70;;;23.40;43.10;;;;;;5430780;26;20013;-61
2024/04/13 07:31:37;;;;;;;1.40;0.82;;;23.30;43.10;;;;;;5430461;26;20134;-61
2024/04/13 07:34:02;;;;;;;0.93;0.75;;;23.40;43.10;;;;;;5431142;26;20014;-60
2024/04/13 07:36:28;;;;;;;1.15;0.80;;;23.30;43.10;;;;;;5424645;26;20036;-61
2024/04/13 07:38:53;;;;;;;0.70;0.70;;;23.30;43.10;;;;;;5426802;26;20050;-60
2024/04/13 07:41:19;;;;;;;0.98;0.70;;;23.40;43.20;;;;;;5428503;26;19999;-61
2024/04/13 07:43:44;;;;;;;1.08;0.90;;;23.30;43.10;;;;;;5423863;26;20017;-61
2024/04/13 07:46:10;;;;;;;0.98;0.73;;;23.30;43.20;;;;;;5427387;26;20482;-61
2024/04/13 07:48:36;;;;;;;0.63;0.63;;;23.30;43.10;;;;;;5427197;26;20042;-61
2024/04/13 07:51:03;;;;;;;0.95;0.70;;;23.30;43.20;;;;;;5427780;26;19999;-60
2024/04/13 07:53:30;;;;;;;1.00;0.82;;;23.30;43.20;;;;;;5426702;26;20680;-60
2024/04/13 07:55:57;;;;;;;0.65;0.65;;;23.30;43.20;;;;;;5429691;26;20528;-61
2024/04/13 07:58:23;;;;;;;1.40;0.80;;;23.30;43.20;;;;;;5424356;26;20339;-60
2024/04/13 08:00:48;;;;;;;0.90;0.70;;;23.30;43.20;;;;;;5424567;26;19996;-61
2024/04/13 08:03:16;;;;;;;0.70;0.70;;;23.30;43.20;;;;;;5427476;26;21093;-61
2024/04/13 08:05:41;;;;;;;0.73;0.73;;;23.30;43.20;;;;;;5429367;26;20329;-61
2024/04/13 08:08:07;;;;;;;0.63;0.63;;;23.30;43.20;;;;;;5426730;26;20031;-61
2024/04/13 08:10:37;;;;;;;0.95;0.80;;;23.30;43.20;;;;;;5427551;26;20095;-61
2024/04/13 08:13:03;;;;;;;1.00;0.80;;;23.30;43.80;;;;;;5427118;26;19996;-61
2024/04/13 08:15:28;;;;;;;0.82;0.75;;;23.30;43.30;;;;;;5425177;26;20058;-61
2024/04/13 08:17:56;;;;;;;0.75;0.70;;;23.30;43.30;;;;;;5431071;26;20067;-60
2024/04/13 08:20:22;;;;;;;1.38;0.90;;;23.30;43.30;;;;;;5434349;26;20064;-61
2024/04/13 08:22:48;;;;;;;1.15;0.77;;;23.20;43.20;;;;;;5433681;26;20004;-61
2024/04/13 08:25:13;;;;;;;1.17;0.85;;;23.30;43.30;;;;;;5429064;26;20426;-63
2024/04/13 08:27:39;;;;;;;1.27;0.90;;;23.30;43.30;;;;;;5433983;26;20027;-63
2024/04/13 08:30:07;;;;;;;0.75;0.70;;;23.20;43.30;;;;;;5432503;26;20015;-63
2024/04/13 08:32:32;;;;;;;1.30;0.90;;;23.20;43.30;;;;;;5431219;26;20073;-63
2024/04/13 08:34:58;;;;;;;1.63;0.80;;;23.30;43.30;;;;;;5436947;26;20007;-61
2024/04/13 08:37:23;;;;;;;1.05;0.80;;;23.20;43.30;;;;;;5429479;26;20498;-62
2024/04/13 08:39:49;;;;;;;1.20;0.80;;;23.20;43.30;;;;;;5427411;26;20466;-60
2024/04/13 08:42:23;;;;;;;0.85;0.80;;;23.20;43.30;;;;;;5425162;26;20000;-61
2024/04/13 08:44:52;;;;;;;1.08;0.98;;;23.20;43.30;;;;;;5427751;26;20075;-60
2024/04/13 08:47:19;;;;;;;1.13;0.82;;;23.20;43.30;;;;;;5428301;26;20003;-61
2024/04/13 08:49:47;;;;;;;0.95;0.80;;;23.20;43.30;;;;;;5431138;26;20336;-60
2024/04/13 08:52:13;;;;;;;1.30;0.80;;;23.20;43.40;;;;;;5431236;26;19996;-60
2024/04/13 08:54:38;;;;;;;0.80;0.75;;;23.30;43.40;;;;;;5429956;26;20002;-61
2024/04/13 08:57:09;;;;;;;1.23;0.90;;;23.20;43.40;;;;;;5428924;26;20006;-60
2024/04/13 08:59:36;;;;;;;1.27;0.90;;;23.20;43.40;;;;;;5444046;26;20011;-61
2024/04/13 09:02:05;;;;;;;0.90;0.80;;;23.20;43.40;;;;;;5425039;26;20014;-61
2024/04/13 09:04:32;;;;;;;1.02;0.90;;;23.20;43.40;;;;;;5429943;26;19998;-62
2024/04/13 09:06:59;;;;;;;1.77;0.82;;;23.20;43.40;;;;;;5429539;26;20003;-61
2024/04/13 09:09:25;;;;;;;0.80;0.80;;;23.20;43.40;;;;;;5427640;26;20002;-61
2024/04/13 09:11:52;;;;;;;1.20;0.80;;;23.20;43.40;;;;;;5428411;26;20004;-61
2024/04/13 09:14:18;;;;;;;1.92;0.90;;;23.20;43.50;;;;;;5426342;26;19999;-61
2024/04/13 09:16:45;;;;;;;1.27;0.80;;;23.20;43.50;;;;;;5430741;26;20010;-61
2024/04/13 09:19:11;;;;;;;1.38;0.90;;;23.20;43.50;;;;;;5428191;26;20412;-61
2024/04/13 09:21:40;;;;;;;1.70;1.10;;;23.20;43.50;;;;;;5427647;26;20084;-60
2024/04/13 09:24:07;;;;;;;3.20;1.20;;;23.20;43.60;;;;;;5429744;26;20017;-60
2024/04/13 09:26:42;;;;;;;2.42;1.27;;;23.20;43.60;;;;;;5431863;26;20501;-60
2024/04/13 09:29:08;;;;;;;1.98;1.30;;;23.30;43.60;;;;;;5427620;26;20014;-61
2024/04/13 09:31:39;;;;;;;2.42;1.52;;;23.30;43.60;;;;;;5427179;26;20378;-60
2024/04/13 09:34:05;;;;;;;3.25;1.40;;;23.30;43.60;;;;;;5431251;26;20014;-62
2024/04/13 09:36:31;;;;;;;2.10;1.40;;;23.40;43.60;;;;;;5427088;26;20007;-62
2024/04/13 09:38:57;;;;;;;2.33;1.30;;;23.40;43.60;;;;;;5430096;26;20477;-63
2024/04/13 09:41:28;;;;;;;3.13;1.30;;;23.40;43.60;;;;;;5427395;26;20068;-62
2024/04/13 09:43:53;;;;;;;2.60;1.58;;;23.40;43.50;;;;;;5430621;26;20010;-61
2024/04/13 09:46:20;;;;;;;2.47;1.33;;;23.40;43.50;;;;;;5432030;26;20000;-62
2024/04/13 09:48:46;;;;;;;2.15;1.20;;;23.50;43.50;;;;;;5432094;26;19999;-62
2024/04/13 09:51:11;;;;;;;2.45;1.23;;;23.50;43.50;;;;;;5425177;26;20500;-62
2024/04/13 09:53:38;;;;;;;1.75;1.17;;;23.50;43.50;;;;;;5428850;26;19999;-62
2024/04/13 09:56:04;;;;;;;2.80;1.40;;;23.50;43.40;;;;;;5431276;26;20083;-62
2024/04/13 09:58:30;;;;;;;3.03;1.40;;;23.50;43.40;;;;;;5428667;26;20014;-62
2024/04/13 10:01:01;;;;;;;1.80;1.30;;;23.50;43.40;;;;;;5428588;26;20011;-62
2024/04/13 10:03:27;;;;;;;2.25;1.30;;;23.60;43.50;;;;;;5431777;26;20000;-62
2024/04/13 10:05:56;;;;;;;2.28;1.40;;;23.60;43.50;;;;;;5427046;26;20003;-62
2024/04/13 10:08:24;;;;;;;2.00;1.30;;;23.60;43.40;;;;;;5427721;26;20007;-62
2024/04/13 10:10:51;;;;;;;2.70;1.38;;;23.60;43.40;;;;;;5428038;26;20405;-62
2024/04/13 10:13:38;;;;;;;3.00;1.40;;;23.70;43.50;;;;;;5427126;26;20003;-63
2024/04/13 10:16:05;;;;;;;1.52;1.10;;;23.70;43.50;;;;;;5430360;26;20014;-62
2024/04/13 10:18:30;;;;;;;2.05;1.17;;;23.70;43.50;;;;;;5429582;26;20418;-62
2024/04/13 10:21:01;;;;;;;3.30;1.30;;;23.70;43.50;;;;;;5429961;26;19999;-62
2024/04/13 10:23:26;;;;;;;2.28;1.50;;;23.70;43.50;;;;;;5428138;26;20010;-62
2024/04/13 10:25:58;;;;;;;1.33;1.00;;;23.70;44.10;;;;;;5427099;26;20000;-62
2024/04/13 10:28:24;;;;;;;1.30;1.10;;;23.70;43.50;;;;;;5425838;26;20002;-63
2024/04/13 10:30:52;;;;;;;2.20;1.30;;;23.70;43.50;;;;;;5425954;26;20040;-62
2024/04/13 10:33:18;;;;;;;1.65;1.00;;;23.70;43.50;;;;;;5428147;26;20002;-62
2024/04/13 10:36:00;;;;;;;2.40;1.20;;;23.70;43.50;;;;;;5427884;26;20038;-63
2024/04/13 10:38:27;;;;;;;1.75;1.10;;;23.80;43.50;;;;;;5424892;26;20425;-62
2024/04/13 10:40:54;;;;;;;2.03;1.15;;;23.80;43.40;;;;;;5429923;26;20446;-62
2024/04/13 10:43:21;;;;;;;1.40;1.00;;;23.80;43.40;;;;;;5427318;26;20055;-62
2024/04/13 10:45:54;;;;;;;2.13;1.20;;;23.80;43.40;;;;;;5425053;26;20407;-62
2024/04/13 10:48:21;;;;;;;2.17;1.30;;;23.80;43.40;;;;;;5426942;26;20093;-63
2024/04/13 10:50:54;;;;;;;1.92;1.40;;;23.80;43.40;;;;;;5428684;26;19999;-62
2024/04/13 10:53:25;;;;;;;2.67;1.67;;;23.80;43.30;;;;;;5433159;26;20013;-64
2024/04/13 10:55:52;;;;;;;2.50;1.63;;;23.80;43.30;;;;;;5427816;26;20039;-61
2024/04/13 10:58:19;;;;;;;2.80;1.80;;;23.80;43.20;;;;;;5427989;26;20017;-61
2024/04/13 11:00:49;;;;;;;3.40;1.90;;;23.90;43.20;;;;;;5430138;26;20014;-61
2024/04/13 11:03:16;;;;;;;3.65;2.33;;;23.90;43.00;;;;;;5429716;26;20459;-61
2024/04/13 11:05:45;;;;;;;3.08;2.08;;;23.90;42.80;;;;;;5426240;26;20019;-62
2024/04/13 11:08:12;;;;;;;3.75;2.22;;;23.80;42.60;;;;;;5426043;26;20018;-61
2024/04/13 11:10:39;;;;;;;4.13;2.30;;;23.90;42.50;;;;;;5428556;26;20018;-61
2024/04/13 11:13:05;;;;;;;3.35;2.20;;;23.90;42.50;;;;;;5429650;26;20080;-61
2024/04/13 11:15:32;;;;;;;3.10;1.90;;;23.90;42.50;;;;;;5427859;26;20003;-61
2024/04/13 11:17:58;;;;;;;2.83;2.03;;;23.80;42.50;;;;;;5429554;26;20014;-61
2024/04/13 11:20:26;;;;;;;2.75;1.88;;;23.90;42.50;;;;;;5427080;26;20003;-62
2024/04/13 11:22:53;;;;;;;3.65;2.00;;;23.90;42.50;;;;;;5433207;26;20019;-61
2024/04/13 11:25:19;;;;;;;2.97;2.03;;;23.90;42.50;;;;;;5428023;26;20003;-61
2024/04/13 11:27:45;;;;;;;2.65;1.90;;;23.90;42.30;;;;;;5427745;26;19999;-61
2024/04/13 11:30:12;;;;;;;3.75;1.90;;;23.90;42.10;;;;;;5430847;26;20462;-61
2024/04/13 11:32:38;;;;;;;3.42;2.00;;;23.90;42.10;;;;;;5429191;26;20039;-60
2024/04/13 11:35:04;;;;;;;3.08;2.03;;;23.90;42.10;;;;;;5427412;26;20007;-61
2024/04/13 11:37:30;;;;;;;2.50;1.80;;;23.90;42.10;;;;;;5424577;26;19999;-61
2024/04/13 11:39:55;;;;;;;3.08;2.10;;;23.90;42.10;;;;;;5425300;26;20014;-61
2024/04/13 11:42:21;;;;;;;3.47;1.90;;;23.90;42.10;;;;;;5428247;26;20003;-61
2024/04/13 11:44:49;;;;;;;3.65;2.13;;;23.90;42.10;;;;;;5427685;26;20003;-62
2024/04/13 11:47:15;;;;;;;2.50;1.60;;;23.90;42.10;;;;;;5426952;26;20348;-61
2024/04/13 11:49:42;;;;;;;2.95;1.75;;;24.00;42.00;;;;;;5429340;26;20060;-62
2024/04/13 11:52:17;;;;;;;3.15;1.98;;;23.90;42.00;;;;;;5427625;26;20006;-62
2024/04/13 11:54:43;;;;;;;2.80;2.00;;;23.90;41.80;;;;;;5426723;26;20013;-61
2024/04/13 11:57:11;;;;;;;2.13;1.55;;;23.90;41.90;;;;;;5435056;26;20003;-60
2024/04/13 11:59:37;;;;;;;2.45;1.80;;;24.00;41.70;;;;;;5430142;26;20062;-61
2024/04/13 12:02:03;;;;;;;3.33;1.90;;;24.00;41.60;;;;;;5427730;26;19999;-61
2024/04/13 12:04:28;;;;;;;2.92;1.80;;;24.00;41.80;;;;;;5430289;26;19998;-62
2024/04/13 12:06:54;;;;;;;4.78;2.88;;;24.00;41.90;;;;;;5434607;26;20005;-62
2024/04/13 12:09:20;;;;;;;5.30;2.35;;;24.10;42.10;;;;;;5438204;26;20014;-62
2024/04/13 12:11:46;;;;;;;3.40;2.35;;;24.10;42.60;;;;;;5429783;26;20035;-63
2024/04/13 12:14:13;;;;;;;4.60;2.42;;;24.10;42.00;;;;;;5430020;26;20063;-62
2024/04/13 12:16:39;;;;;;;3.00;1.90;;;24.10;42.00;;;;;;5431269;26;20017;-62
2024/04/13 12:19:04;;;;;;;4.28;2.00;;;24.10;42.00;;;;;;5428222;26;20007;-62
2024/04/13 12:21:31;;;;;;;4.22;2.30;;;24.10;41.90;;;;;;5429582;26;20449;-62
2024/04/13 12:23:57;;;;;;;3.88;2.15;;;24.10;41.90;;;;;;5427420;26;20401;-62
2024/04/13 12:26:24;;;;;;;3.28;1.88;;;24.10;41.90;;;;;;5430722;26;20005;-62
2024/04/13 12:28:50;;;;;;;3.13;1.63;;;24.20;42.10;;;;;;5429133;26;19996;-62
2024/04/13 12:31:16;;;;;;;3.53;1.60;;;24.20;42.10;;;;;;5431008;26;20057;-62
2024/04/13 12:33:44;;;;;;;3.13;1.42;;;24.20;42.20;;;;;;5429181;26;20339;-62
2024/04/13 12:36:10;;;;;;;2.63;1.63;;;24.20;42.20;;;;;;5429290;26;20462;-62
2024/04/13 12:38:36;;;;;;;2.90;1.70;;;24.20;42.80;;;;;;5425980;26;20018;-62
2024/04/13 12:41:03;;;;;;;4.10;1.80;;;24.20;42.20;;;;;;5426179;26;20003;-62
2024/04/13 12:43:29;;;;;;;3.78;1.75;;;24.30;42.20;;;;;;5426310;26;20035;-62